Time,TemperatureF,DewpointF,PressureIn,WindDirection,WindDirectionDegrees,WindSpeedMPH,WindSpeedGustMPH,Humidity,HourlyPrecipIn,Conditions,Clouds,dailyrainin,SoftwareType,DateUTC
2013-07-06 00:00:00,74.9,73.1,30.09,SW,228,0.0,0.0,94,0.00,,FEW065,0.00,VWS V14.01,2013-07-06 04:00:00,
2013-07-06 00:01:00,74.8,73.0,30.09,SW,228,0.0,0.0,94,0.00,,SCT095,0.00,VWS V14.01,2013-07-06 04:01:00,
2013-07-06 00:06:00,74.7,72.9,30.08,SW,228,0.0,0.0,94,0.00,,SCT095,0.00,VWS V14.01,2013-07-06 04:06:00,
2013-07-06 00:11:00,74.7,73.2,30.09,SW,228,0.0,0.0,95,0.00,,SCT095,0.00,VWS V14.01,2013-07-06 04:11:00,
2013-07-06 00:16:00,74.7,73.2,30.09,SW,228,0.0,0.0,95,0.00,,SCT095,0.00,VWS V14.01,2013-07-06 04:16:00,
2013-07-06 00:21:00,74.6,73.1,30.09,SW,228,0.0,0.0,95,0.00,,SCT095,0.00,VWS V14.01,2013-07-06 04:21:00,
2013-07-06 00:26:00,74.5,73.0,30.09,SW,228,0.0,0.0,95,0.00,,SCT095,0.00,VWS V14.01,2013-07-06 04:26:00,
2013-07-06 00:31:00,74.7,73.2,30.09,WSW,256,0.0,0.0,95,0.00,,SCT095,0.00,VWS V14.01,2013-07-06 04:31:00,
2013-07-06 00:36:00,74.7,73.2,30.09,WNW,294,0.0,0.0,95,0.00,,SCT095,0.00,VWS V14.01,2013-07-06 04:36:00,
2013-07-06 00:41:00,74.8,73.3,30.09,WNW,293,0.0,2.0,95,0.00,,SCT095,0.00,VWS V14.01,2013-07-06 04:41:00,
2013-07-06 00:46:00,74.9,73.4,30.09,WNW,294,1.0,3.0,95,0.00,,SCT095,0.00,VWS V14.01,2013-07-06 04:46:00,
2013-07-06 00:51:00,75.0,73.5,30.09,WNW,284,1.0,3.0,95,0.00,,SCT095,0.00,VWS V14.01,2013-07-06 04:51:00,
2013-07-06 00:56:00,75.0,73.5,30.09,West,279,1.0,3.0,95,0.00,,SCT095,0.00,VWS V14.01,2013-07-06 04:56:00,
2013-07-06 01:01:00,74.9,73.4,30.09,West,280,1.0,2.0,95,0.00,,CLR,0.00,VWS V14.01,2013-07-06 05:01:00,
2013-07-06 01:06:00,74.9,73.4,30.09,WNW,284,1.0,2.0,95,0.00,,CLR,0.00,VWS V14.01,2013-07-06 05:06:00,
2013-07-06 01:11:00,74.8,73.3,30.09,West,280,0.0,2.0,95,0.00,,CLR,0.00,VWS V14.01,2013-07-06 05:11:00,
2013-07-06 01:16:00,74.8,73.3,30.09,West,278,0.0,2.0,95,0.00,,CLR,0.00,VWS V14.01,2013-07-06 05:16:00,
2013-07-06 01:21:00,74.7,73.2,30.10,West,278,0.0,2.0,95,0.00,,CLR,0.00,VWS V14.01,2013-07-06 05:21:00,
2013-07-06 01:26:00,74.6,73.1,30.10,West,278,0.0,2.0,95,0.00,,CLR,0.00,VWS V14.01,2013-07-06 05:26:00,
2013-07-06 01:31:00,74.5,73.0,30.10,West,278,0.0,0.0,95,0.00,,BKN003,0.00,VWS V14.01,2013-07-06 05:31:00,
2013-07-06 01:36:00,74.4,72.9,30.10,West,278,0.0,0.0,95,0.00,,BKN003,0.00,VWS V14.01,2013-07-06 05:36:00,
2013-07-06 01:41:00,74.4,72.9,30.10,West,262,2.0,2.0,95,0.00,,BKN003,0.00,VWS V14.01,2013-07-06 05:41:00,
2013-07-06 01:46:00,74.3,73.1,30.10,WNW,284,0.0,2.0,96,0.00,,BKN003,0.00,VWS V14.01,2013-07-06 05:46:00,
2013-07-06 01:51:00,74.2,73.0,30.10,WNW,284,1.0,2.0,96,0.00,,BKN003,0.00,VWS V14.01,2013-07-06 05:51:00,
2013-07-06 01:56:00,74.1,72.6,30.10,WNW,284,0.0,2.0,95,0.00,,BKN003,0.00,VWS V14.01,2013-07-06 05:56:00,
2013-07-06 02:01:00,73.9,72.7,30.10,WNW,284,0.0,0.0,96,0.00,,,0.00,VWS V14.01,2013-07-06 06:01:00,
2013-07-06 02:06:00,73.8,72.6,30.10,WSW,238,0.0,1.0,96,0.00,,,0.00,VWS V14.01,2013-07-06 06:06:00,
2013-07-06 02:11:00,73.5,72.0,30.10,WSW,238,0.0,1.0,95,0.00,,,0.00,VWS V14.01,2013-07-06 06:11:00,
2013-07-06 02:16:00,73.2,72.0,30.11,WSW,239,0.0,1.0,96,0.00,,,0.00,VWS V14.01,2013-07-06 06:16:00,
2013-07-06 02:21:00,73.2,72.0,30.11,WSW,238,0.0,1.0,96,0.00,,,0.00,VWS V14.01,2013-07-06 06:21:00,
2013-07-06 02:26:00,73.2,72.3,30.11,WSW,250,0.0,1.0,97,0.00,,,0.00,VWS V14.01,2013-07-06 06:26:00,
2013-07-06 02:31:00,73.2,72.3,30.11,WSW,253,0.0,0.0,97,0.00,,,0.00,VWS V14.01,2013-07-06 06:31:00,
2013-07-06 02:36:00,73.2,72.3,30.11,WSW,245,0.0,1.0,97,0.00,,,0.00,VWS V14.01,2013-07-06 06:36:00,
2013-07-06 02:41:00,72.9,71.7,30.11,WSW,244,0.0,1.0,96,0.00,,,0.00,VWS V14.01,2013-07-06 06:41:00,
2013-07-06 02:46:00,72.8,71.9,30.11,WSW,245,1.0,2.0,97,0.00,,,0.00,VWS V14.01,2013-07-06 06:46:00,
2013-07-06 02:51:00,72.9,72.0,30.11,WNW,291,3.0,4.0,97,0.00,,,0.00,VWS V14.01,2013-07-06 06:51:00,
2013-07-06 02:56:00,73.0,72.1,30.11,WNW,284,2.0,5.0,97,0.00,,,0.00,VWS V14.01,2013-07-06 06:56:00,
2013-07-06 03:01:00,73.0,72.1,30.11,WNW,285,0.0,1.0,97,0.00,,,0.00,VWS V14.01,2013-07-06 07:01:00,
2013-07-06 03:06:00,72.9,72.0,30.11,WNW,283,2.0,3.0,97,0.00,,,0.00,VWS V14.01,2013-07-06 07:06:00,
2013-07-06 03:11:00,72.9,72.0,30.11,West,271,2.0,5.0,97,0.00,,,0.00,VWS V14.01,2013-07-06 07:11:00,
2013-07-06 03:16:00,72.9,72.0,30.11,WNW,302,3.0,5.0,97,0.00,,,0.00,VWS V14.01,2013-07-06 07:16:00,
2013-07-06 03:21:00,72.8,71.9,30.11,West,281,1.0,5.0,97,0.00,,,0.00,VWS V14.01,2013-07-06 07:21:00,
2013-07-06 03:26:00,72.8,71.9,30.11,WNW,288,1.0,5.0,97,0.00,,,0.00,VWS V14.01,2013-07-06 07:26:00,
2013-07-06 03:31:00,72.7,71.8,30.11,West,276,1.0,2.0,97,0.00,,,0.00,VWS V14.01,2013-07-06 07:31:00,
2013-07-06 03:36:00,72.6,72.0,30.11,WNW,294,1.0,3.0,98,0.00,,,0.00,VWS V14.01,2013-07-06 07:36:00,
2013-07-06 03:41:00,72.6,72.0,30.11,WNW,290,2.0,5.0,98,0.00,,,0.00,VWS V14.01,2013-07-06 07:41:00,
2013-07-06 03:46:00,72.5,71.9,30.11,WNW,284,0.0,5.0,98,0.00,,,0.00,VWS V14.01,2013-07-06 07:46:00,
2013-07-06 03:51:00,72.5,71.9,30.11,WNW,291,0.0,5.0,98,0.00,,,0.00,VWS V14.01,2013-07-06 07:51:00,
2013-07-06 03:56:00,72.4,71.8,30.11,WNW,284,1.0,5.0,98,0.00,,,0.00,VWS V14.01,2013-07-06 07:56:00,
2013-07-06 04:01:00,72.4,71.8,30.11,West,278,0.0,1.0,98,0.00,,,0.00,VWS V14.01,2013-07-06 08:01:00,
2013-07-06 04:06:00,72.4,71.8,30.11,West,263,0.0,1.0,98,0.00,,,0.00,VWS V14.01,2013-07-06 08:06:00,
2013-07-06 04:11:00,72.4,71.8,30.11,WNW,285,1.0,2.0,98,0.00,,,0.00,VWS V14.01,2013-07-06 08:11:00,
2013-07-06 04:16:00,72.3,71.7,30.10,West,273,1.0,3.0,98,0.00,,,0.00,VWS V14.01,2013-07-06 08:16:00,
2013-07-06 04:21:00,72.3,71.7,30.10,WNW,302,0.0,5.0,98,0.00,,,0.00,VWS V14.01,2013-07-06 08:21:00,
2013-07-06 04:26:00,72.3,71.7,30.10,WNW,284,3.0,5.0,98,0.00,,,0.00,VWS V14.01,2013-07-06 08:26:00,
2013-07-06 04:31:00,72.2,71.6,30.10,WNW,290,0.0,2.0,98,0.00,,OVC004,0.00,VWS V14.01,2013-07-06 08:31:00,
2013-07-06 04:36:00,72.2,71.6,30.11,WNW,291,2.0,2.0,98,0.00,,OVC004,0.00,VWS V14.01,2013-07-06 08:36:00,
2013-07-06 04:41:00,72.2,71.6,30.11,West,281,2.0,4.0,98,0.00,,OVC004,0.00,VWS V14.01,2013-07-06 08:41:00,
2013-07-06 04:46:00,72.1,71.5,30.11,WNW,283,2.0,5.0,98,0.00,,OVC004,0.00,VWS V14.01,2013-07-06 08:46:00,
2013-07-06 04:51:00,72.0,71.4,30.11,WNW,284,2.0,5.0,98,0.00,,OVC004,0.00,VWS V14.01,2013-07-06 08:51:00,
2013-07-06 04:56:00,72.0,71.4,30.11,WNW,288,2.0,6.0,98,0.00,,OVC004,0.00,VWS V14.01,2013-07-06 08:56:00,
2013-07-06 05:01:00,72.0,71.4,30.11,West,263,1.0,2.0,98,0.00,,,0.00,VWS V14.01,2013-07-06 09:01:00,
2013-07-06 05:06:00,72.0,71.4,30.10,West,281,1.0,3.0,98,0.00,,,0.00,VWS V14.01,2013-07-06 09:06:00,
2013-07-06 05:11:00,72.0,71.4,30.10,West,278,1.0,3.0,98,0.00,,,0.00,VWS V14.01,2013-07-06 09:11:00,
2013-07-06 05:16:00,72.0,71.4,30.11,WNW,293,1.0,3.0,98,0.00,,,0.00,VWS V14.01,2013-07-06 09:16:00,
2013-07-06 05:21:00,72.0,71.4,30.11,WNW,284,2.0,3.0,98,0.00,,,0.00,VWS V14.01,2013-07-06 09:21:00,
2013-07-06 05:26:00,72.0,71.4,30.11,WNW,290,1.0,4.0,98,0.00,,,0.00,VWS V14.01,2013-07-06 09:26:00,
2013-07-06 05:31:00,72.0,71.4,30.11,West,264,0.0,2.0,98,0.00,,,0.00,VWS V14.01,2013-07-06 09:31:00,
2013-07-06 05:36:00,72.0,71.4,30.11,WNW,297,1.0,4.0,98,0.00,,,0.00,VWS V14.01,2013-07-06 09:36:00,
2013-07-06 05:41:00,72.0,71.4,30.11,SW,229,1.0,4.0,98,0.00,,,0.00,VWS V14.01,2013-07-06 09:41:00,
2013-07-06 05:46:00,71.9,71.3,30.11,SW,217,1.0,4.0,98,0.00,,,0.00,VWS V14.01,2013-07-06 09:46:00,
2013-07-06 05:51:00,71.9,71.3,30.11,SW,224,2.0,4.0,98,0.00,,,0.00,VWS V14.01,2013-07-06 09:51:00,
2013-07-06 05:56:00,71.9,71.3,30.12,SSW,198,0.0,4.0,98,0.00,,,0.00,VWS V14.01,2013-07-06 09:56:00,
2013-07-06 06:01:00,71.9,71.3,30.12,West,276,1.0,1.0,98,0.00,,,0.00,VWS V14.01,2013-07-06 10:01:00,
2013-07-06 06:06:00,71.8,71.2,30.12,West,275,0.0,3.0,98,0.00,,,0.00,VWS V14.01,2013-07-06 10:06:00,
2013-07-06 06:11:00,71.8,71.2,30.12,West,274,0.0,3.0,98,0.00,,,0.00,VWS V14.01,2013-07-06 10:11:00,
2013-07-06 06:16:00,71.8,71.2,30.13,SW,218,0.0,3.0,98,0.00,,,0.00,VWS V14.01,2013-07-06 10:16:00,
2013-07-06 06:21:00,71.9,71.3,30.13,WSW,239,2.0,3.0,98,0.00,,,0.00,VWS V14.01,2013-07-06 10:21:00,
2013-07-06 06:26:00,71.9,71.3,30.13,SW,233,0.0,3.0,98,0.00,,,0.00,VWS V14.01,2013-07-06 10:26:00,
2013-07-06 06:31:00,71.9,71.3,30.13,SW,218,0.0,0.0,98,0.00,,,0.00,VWS V14.01,2013-07-06 10:31:00,
2013-07-06 06:36:00,71.9,71.3,30.13,SW,236,0.0,0.0,98,0.00,,,0.00,VWS V14.01,2013-07-06 10:36:00,
2013-07-06 06:41:00,72.0,71.4,30.13,WSW,251,1.0,2.0,98,0.00,,,0.00,VWS V14.01,2013-07-06 10:41:00,
2013-07-06 06:46:00,72.0,71.4,30.13,SW,224,0.0,2.0,98,0.00,,,0.00,VWS V14.01,2013-07-06 10:46:00,
2013-07-06 06:51:00,72.0,71.4,30.13,SSW,212,2.0,2.0,98,0.00,,,0.00,VWS V14.01,2013-07-06 10:51:00,
2013-07-06 06:56:00,72.0,71.1,30.14,SSW,203,0.0,3.0,97,0.00,,,0.00,VWS V14.01,2013-07-06 10:56:00,
2013-07-06 07:01:00,71.9,71.0,30.14,West,268,0.0,0.0,97,0.00,,,0.00,VWS V14.01,2013-07-06 11:01:00,
2013-07-06 07:06:00,71.9,71.3,30.14,West,281,1.0,2.0,98,0.00,,,0.00,VWS V14.01,2013-07-06 11:06:00,
2013-07-06 07:11:00,72.0,71.4,30.14,SW,222,0.0,2.0,98,0.00,,,0.00,VWS V14.01,2013-07-06 11:11:00,
2013-07-06 07:16:00,72.0,71.4,30.13,SW,224,2.0,2.0,98,0.00,,,0.00,VWS V14.01,2013-07-06 11:16:00,
2013-07-06 07:21:00,72.0,71.4,30.14,SW,219,0.0,2.0,98,0.00,,,0.00,VWS V14.01,2013-07-06 11:21:00,
2013-07-06 07:26:00,72.0,71.1,30.14,West,281,1.0,3.0,97,0.00,,,0.00,VWS V14.01,2013-07-06 11:26:00,
2013-07-06 07:31:00,72.0,71.1,30.14,West,266,0.0,0.0,97,0.00,,,0.00,VWS V14.01,2013-07-06 11:31:00,
2013-07-06 07:36:00,72.1,71.2,30.14,West,269,0.0,1.0,97,0.00,,,0.00,VWS V14.01,2013-07-06 11:36:00,
2013-07-06 07:41:00,72.2,71.3,30.14,West,281,0.0,2.0,97,0.00,,,0.00,VWS V14.01,2013-07-06 11:41:00,
2013-07-06 07:46:00,72.4,71.5,30.14,West,281,0.0,2.0,97,0.00,,,0.00,VWS V14.01,2013-07-06 11:46:00,
2013-07-06 07:51:00,72.6,71.7,30.14,WNW,295,1.0,2.0,97,0.00,,,0.00,VWS V14.01,2013-07-06 11:51:00,
2013-07-06 07:56:00,72.6,71.7,30.14,WNW,293,2.0,3.0,97,0.00,,,0.00,VWS V14.01,2013-07-06 11:56:00,
2013-07-06 08:01:00,72.7,71.5,30.14,NNW,342,1.0,1.0,96,0.00,,,0.00,VWS V14.01,2013-07-06 12:01:00,
2013-07-06 08:06:00,72.7,71.5,30.14,WNW,284,2.0,4.0,96,0.00,,,0.00,VWS V14.01,2013-07-06 12:06:00,
2013-07-06 08:11:00,72.9,71.7,30.14,WNW,298,0.0,4.0,96,0.00,,,0.00,VWS V14.01,2013-07-06 12:11:00,
2013-07-06 08:16:00,73.1,71.9,30.14,WNW,287,0.0,4.0,96,0.00,,,0.00,VWS V14.01,2013-07-06 12:16:00,
2013-07-06 08:21:00,73.1,71.6,30.14,WNW,293,3.0,5.0,95,0.00,,,0.00,VWS V14.01,2013-07-06 12:21:00,
2013-07-06 08:26:00,73.2,71.7,30.14,WNW,284,2.0,5.0,95,0.00,,,0.00,VWS V14.01,2013-07-06 12:26:00,
2013-07-06 08:31:00,73.4,71.9,30.14,NW,315,0.0,0.0,95,0.00,,OVC006,0.00,VWS V14.01,2013-07-06 12:31:00,
2013-07-06 08:36:00,73.8,72.0,30.14,WNW,287,3.0,3.0,94,0.00,,OVC006,0.00,VWS V14.01,2013-07-06 12:36:00,
2013-07-06 08:41:00,73.8,72.0,30.14,WNW,291,0.0,3.0,94,0.00,,OVC006,0.00,VWS V14.01,2013-07-06 12:41:00,
2013-07-06 08:46:00,74.4,72.2,30.14,WNW,302,1.0,3.0,93,0.00,,OVC006,0.00,VWS V14.01,2013-07-06 12:46:00,
2013-07-06 08:51:00,74.5,72.0,30.14,West,259,0.0,4.0,92,0.00,,OVC006,0.00,VWS V14.01,2013-07-06 12:51:00,
2013-07-06 08:56:00,74.8,72.3,30.14,West,267,1.0,4.0,92,0.00,,OVC006,0.00,VWS V14.01,2013-07-06 12:56:00,
2013-07-06 09:01:00,75.1,72.3,30.14,West,259,1.0,2.0,91,0.00,,BKN006,0.00,VWS V14.01,2013-07-06 13:01:00,
2013-07-06 09:06:00,75.5,72.7,30.14,WSW,252,0.0,4.0,91,0.00,,BKN006,0.00,VWS V14.01,2013-07-06 13:06:00,
2013-07-06 09:10:00,76.1,72.3,30.14,NW,305,2.0,5.0,88,0.00,,BKN006,0.00,VWS V14.01,2013-07-06 13:10:00,
2013-07-06 09:15:00,76.7,72.9,30.13,WNW,283,1.0,5.0,88,0.00,,BKN006,0.00,VWS V14.01,2013-07-06 13:15:00,
2013-07-06 09:20:00,76.8,72.6,30.13,WNW,290,2.0,5.0,87,0.00,,BKN006,0.00,VWS V14.01,2013-07-06 13:20:00,
2013-07-06 09:25:00,77.5,73.0,30.13,WNW,287,4.0,5.0,86,0.00,,BKN006,0.00,VWS V14.01,2013-07-06 13:25:00,
2013-07-06 09:30:00,78.0,73.1,30.13,WNW,293,1.0,3.0,85,0.00,,SCT009,0.00,VWS V14.01,2013-07-06 13:30:00,
2013-07-06 09:35:00,78.3,73.8,30.13,WNW,288,0.0,6.0,86,0.00,,SCT009,0.00,VWS V14.01,2013-07-06 13:35:00,
2013-07-06 09:40:00,79.0,73.4,30.13,WNW,287,1.0,7.0,83,0.00,,SCT009,0.00,VWS V14.01,2013-07-06 13:40:00,
2013-07-06 09:45:00,79.3,73.7,30.13,West,263,3.0,7.0,83,0.00,,SCT009,0.00,VWS V14.01,2013-07-06 13:45:00,
2013-07-06 09:50:00,79.8,73.8,30.13,WNW,297,5.0,7.0,82,0.00,,SCT009,0.00,VWS V14.01,2013-07-06 13:50:00,
2013-07-06 09:55:00,79.9,73.6,30.13,WNW,291,4.0,7.0,81,0.00,,SCT009,0.00,VWS V14.01,2013-07-06 13:55:00,
2013-07-06 10:00:00,80.3,73.2,30.13,NW,315,1.0,3.0,79,0.00,,SCT009,0.00,VWS V14.01,2013-07-06 14:00:00,
2013-07-06 10:05:00,80.8,74.1,30.13,WNW,284,4.0,4.0,80,0.00,,SCT009,0.00,VWS V14.01,2013-07-06 14:05:00,
2013-07-06 10:10:00,81.3,73.4,30.12,West,264,3.0,5.0,77,0.00,,SCT009,0.00,VWS V14.01,2013-07-06 14:10:00,
2013-07-06 10:15:00,81.4,73.5,30.12,WNW,302,2.0,6.0,77,0.00,,SCT009,0.00,VWS V14.01,2013-07-06 14:15:00,
2013-07-06 10:20:00,81.9,73.6,30.12,WNW,293,5.0,8.0,76,0.00,,SCT009,0.00,VWS V14.01,2013-07-06 14:20:00,
2013-07-06 10:25:00,82.0,73.7,30.12,WNW,300,1.0,8.0,76,0.00,,SCT009,0.00,VWS V14.01,2013-07-06 14:25:00,
2013-07-06 10:30:00,82.5,73.4,30.13,WNW,287,2.0,6.0,74,0.00,,SCT009,0.00,VWS V14.01,2013-07-06 14:30:00,
2013-07-06 10:35:00,82.6,72.7,30.12,WNW,291,5.0,11.0,72,0.00,,SCT009,0.00,VWS V14.01,2013-07-06 14:35:00,
2013-07-06 10:40:00,82.7,73.2,30.12,WNW,294,3.0,11.0,73,0.00,,SCT009,0.00,VWS V14.01,2013-07-06 14:40:00,
2013-07-06 10:45:00,82.7,73.6,30.12,WNW,302,0.0,11.0,74,0.00,,SCT009,0.00,VWS V14.01,2013-07-06 14:45:00,
2013-07-06 10:50:00,83.0,73.1,30.12,WNW,283,3.0,11.0,72,0.00,,SCT009,0.00,VWS V14.01,2013-07-06 14:50:00,
2013-07-06 10:55:00,83.5,73.5,30.12,West,278,5.0,11.0,72,0.00,,SCT009,0.00,VWS V14.01,2013-07-06 14:55:00,
2013-07-06 11:00:00,83.4,72.6,30.12,WNW,291,4.0,7.0,70,0.00,,SCT040,0.00,VWS V14.01,2013-07-06 15:00:00,
2013-07-06 11:05:00,83.6,73.2,30.12,WNW,299,6.0,9.0,71,0.00,,SCT040,0.00,VWS V14.01,2013-07-06 15:05:00,
2013-07-06 11:10:00,83.6,72.8,30.12,WNW,285,3.0,11.0,70,0.00,,SCT040,0.00,VWS V14.01,2013-07-06 15:10:00,
2013-07-06 11:15:00,83.8,72.6,30.12,West,262,3.0,11.0,69,0.00,,SCT040,0.00,VWS V14.01,2013-07-06 15:15:00,
2013-07-06 11:20:00,84.4,73.1,30.12,West,262,3.0,11.0,69,0.00,,SCT040,0.00,VWS V14.01,2013-07-06 15:20:00,
2013-07-06 11:25:00,85.0,72.8,30.12,WNW,300,5.0,11.0,67,0.00,,SCT040,0.00,VWS V14.01,2013-07-06 15:25:00,
2013-07-06 11:30:00,84.9,71.8,30.12,WNW,290,5.0,7.0,65,0.00,,SCT040,0.00,VWS V14.01,2013-07-06 15:30:00,
2013-07-06 11:35:00,85.2,71.7,30.12,WNW,290,3.0,8.0,64,0.00,,SCT040,0.00,VWS V14.01,2013-07-06 15:35:00,
2013-07-06 11:40:00,85.7,71.7,30.11,WNW,289,3.0,10.0,63,0.00,,SCT040,0.00,VWS V14.01,2013-07-06 15:40:00,
2013-07-06 11:45:00,85.9,71.8,30.11,North,3,3.0,11.0,63,0.00,,SCT040,0.00,VWS V14.01,2013-07-06 15:45:00,
2013-07-06 11:50:00,86.3,71.8,30.11,WNW,283,9.0,11.0,62,0.00,,SCT040,0.00,VWS V14.01,2013-07-06 15:50:00,
2013-07-06 11:55:00,86.1,71.1,30.11,WNW,290,4.0,11.0,61,0.00,,SCT040,0.00,VWS V14.01,2013-07-06 15:55:00,
2013-07-06 12:00:00,86.0,71.0,30.11,North,360,4.0,4.0,61,0.00,,SCT040,0.00,VWS V14.01,2013-07-06 16:00:00,
2013-07-06 12:06:00,86.3,71.3,30.11,WNW,297,4.0,10.0,61,0.00,,SCT040,0.00,VWS V14.01,2013-07-06 16:06:00,
2013-07-06 12:11:00,87.3,71.7,30.11,West,278,6.0,10.0,60,0.00,,SCT040,0.00,VWS V14.01,2013-07-06 16:11:00,
2013-07-06 12:16:00,86.9,71.3,30.11,WNW,283,10.0,12.0,60,0.00,,SCT040,0.00,VWS V14.01,2013-07-06 16:16:00,
2013-07-06 12:21:00,86.9,71.3,30.11,WNW,285,4.0,12.0,60,0.00,,SCT040,0.00,VWS V14.01,2013-07-06 16:21:00,
2013-07-06 12:26:00,87.0,71.4,30.11,West,267,3.0,12.0,60,0.00,,SCT040,0.00,VWS V14.01,2013-07-06 16:26:00,
2013-07-06 12:31:00,87.1,72.0,30.11,WNW,284,5.0,10.0,61,0.00,,SCT040,0.00,VWS V14.01,2013-07-06 16:31:00,
2013-07-06 12:36:00,87.2,72.6,30.10,WNW,293,5.0,10.0,62,0.00,,SCT040,0.00,VWS V14.01,2013-07-06 16:36:00,
2013-07-06 12:41:00,87.6,72.5,30.10,WNW,292,5.0,10.0,61,0.00,,SCT040,0.00,VWS V14.01,2013-07-06 16:41:00,
2013-07-06 12:46:00,87.6,72.0,30.10,WNW,291,5.0,11.0,60,0.00,,SCT040,0.00,VWS V14.01,2013-07-06 16:46:00,
2013-07-06 12:51:00,87.4,71.8,30.10,WNW,285,4.0,11.0,60,0.00,,SCT040,0.00,VWS V14.01,2013-07-06 16:51:00,
2013-07-06 12:57:00,87.2,72.1,30.10,WNW,285,4.0,11.0,61,0.00,,SCT040,0.00,VWS V14.01,2013-07-06 16:57:00,
2013-07-06 13:02:00,87.7,73.1,30.09,West,272,7.0,8.0,62,0.00,,CLR,0.00,VWS V14.01,2013-07-06 17:02:00,
2013-07-06 13:07:00,87.7,73.1,30.09,NNW,336,0.0,10.0,62,0.00,,CLR,0.00,VWS V14.01,2013-07-06 17:07:00,
2013-07-06 13:12:00,88.0,71.9,30.09,WNW,285,3.0,10.0,59,0.00,,CLR,0.00,VWS V14.01,2013-07-06 17:12:00,
2013-07-06 13:17:00,88.7,71.0,30.09,WNW,291,5.0,14.0,56,0.00,,CLR,0.00,VWS V14.01,2013-07-06 17:17:00,
2013-07-06 13:22:00,89.1,70.3,30.09,WNW,287,7.0,14.0,54,0.00,,CLR,0.00,VWS V14.01,2013-07-06 17:22:00,
2013-07-06 13:27:00,88.2,70.5,30.09,WNW,293,4.0,14.0,56,0.00,,CLR,0.00,VWS V14.01,2013-07-06 17:27:00,
2013-07-06 13:32:00,88.6,70.4,30.09,West,269,5.0,12.0,55,0.00,,CLR,0.00,VWS V14.01,2013-07-06 17:32:00,
2013-07-06 13:37:00,88.5,70.8,30.08,WNW,299,6.0,12.0,56,0.00,,CLR,0.00,VWS V14.01,2013-07-06 17:37:00,
2013-07-06 13:42:00,88.1,71.0,30.08,WNW,289,3.0,12.0,57,0.00,,CLR,0.00,VWS V14.01,2013-07-06 17:42:00,
2013-07-06 13:48:00,88.2,70.5,30.08,West,262,3.0,12.0,56,0.00,,CLR,0.00,VWS V14.01,2013-07-06 17:48:00,
2013-07-06 13:54:00,88.8,72.6,30.08,WNW,292,3.0,12.0,59,0.00,,CLR,0.00,VWS V14.01,2013-07-06 17:54:00,
2013-07-06 13:59:00,89.4,72.2,30.08,WNW,295,5.0,12.0,57,0.00,,CLR,0.00,VWS V14.01,2013-07-06 17:59:00,
2013-07-06 14:04:00,89.4,72.2,30.08,NNE,33,1.0,3.0,57,0.00,,FEW065,0.00,VWS V14.01,2013-07-06 18:04:00,
2013-07-06 14:09:00,89.8,71.5,30.08,WNW,297,3.0,8.0,55,0.00,,FEW065,0.00,VWS V14.01,2013-07-06 18:09:00,
2013-07-06 14:14:00,89.8,70.9,30.07,West,270,4.0,10.0,54,0.00,,FEW065,0.00,VWS V14.01,2013-07-06 18:14:00,
2013-07-06 14:19:00,89.6,71.8,30.07,WNW,287,5.0,11.0,56,0.00,,FEW065,0.00,VWS V14.01,2013-07-06 18:19:00,
2013-07-06 14:24:00,90.0,71.7,30.07,WNW,282,5.0,11.0,55,0.00,,FEW065,0.00,VWS V14.01,2013-07-06 18:24:00,
2013-07-06 14:29:00,89.7,71.9,30.07,West,277,3.0,11.0,56,0.00,,FEW065,0.00,VWS V14.01,2013-07-06 18:29:00,
2013-07-06 14:35:00,89.8,71.5,30.07,WNW,288,3.0,8.0,55,0.00,,FEW065,0.00,VWS V14.01,2013-07-06 18:35:00,
2013-07-06 14:40:00,89.7,72.4,30.06,SW,231,3.0,8.0,57,0.00,,FEW065,0.00,VWS V14.01,2013-07-06 18:40:00,
2013-07-06 14:45:00,89.9,71.6,30.06,West,278,2.0,8.0,55,0.00,,FEW065,0.00,VWS V14.01,2013-07-06 18:45:00,
2013-07-06 14:51:00,90.5,72.1,30.06,WSW,248,2.0,8.0,55,0.00,,FEW065,0.00,VWS V14.01,2013-07-06 18:51:00,
2013-07-06 14:56:00,90.8,72.4,30.06,WNW,287,2.0,8.0,55,0.00,,FEW065,0.00,VWS V14.01,2013-07-06 18:56:00,
2013-07-06 15:01:00,91.3,72.9,30.05,SW,226,3.0,3.0,55,0.00,,SCT065,0.00,VWS V14.01,2013-07-06 19:01:00,
2013-07-06 15:07:00,91.4,73.0,30.06,SW,222,0.0,5.0,55,0.00,,SCT065,0.00,VWS V14.01,2013-07-06 19:07:00,
2013-07-06 15:12:00,91.7,72.7,30.06,WNW,289,3.0,7.0,54,0.00,,SCT065,0.00,VWS V14.01,2013-07-06 19:12:00,
2013-07-06 15:17:00,91.6,72.6,30.05,WSW,253,3.0,7.0,54,0.00,,SCT065,0.00,VWS V14.01,2013-07-06 19:17:00,
2013-07-06 15:22:00,91.6,72.6,30.05,SW,229,4.0,7.0,54,0.00,,SCT065,0.00,VWS V14.01,2013-07-06 19:22:00,
2013-07-06 15:28:00,91.6,73.2,30.05,WNW,297,1.0,8.0,55,0.00,,SCT065,0.00,VWS V14.01,2013-07-06 19:28:00,
2013-07-06 15:33:00,91.5,73.1,30.05,WNW,290,5.0,6.0,55,0.00,,SCT065,0.00,VWS V14.01,2013-07-06 19:33:00,
2013-07-06 15:38:00,91.4,73.0,30.05,NW,323,1.0,8.0,55,0.00,,SCT065,0.00,VWS V14.01,2013-07-06 19:38:00,
2013-07-06 15:43:00,91.7,73.8,30.05,NNW,340,1.0,8.0,56,0.00,,SCT065,0.00,VWS V14.01,2013-07-06 19:43:00,
2013-07-06 15:48:00,92.1,73.1,30.05,South,186,1.0,8.0,54,0.00,,SCT065,0.00,VWS V14.01,2013-07-06 19:48:00,
2013-07-06 15:54:00,92.2,72.1,30.05,WSW,250,2.0,8.0,52,0.00,,SCT065,0.00,VWS V14.01,2013-07-06 19:54:00,
2013-07-06 15:59:00,92.4,73.3,30.04,WNW,294,3.0,8.0,54,0.00,,SCT065,0.00,VWS V14.01,2013-07-06 19:59:00,
2013-07-06 16:04:00,92.4,72.8,30.04,WSW,243,4.0,8.0,53,0.00,,BKN060,0.00,VWS V14.01,2013-07-06 20:04:00,
2013-07-06 16:09:00,92.1,72.5,30.04,NE,50,0.0,8.0,53,0.00,,BKN060,0.00,VWS V14.01,2013-07-06 20:09:00,
2013-07-06 16:14:00,92.4,72.2,30.04,SW,215,4.0,8.0,52,0.00,,BKN060,0.00,VWS V14.01,2013-07-06 20:14:00,
2013-07-06 16:19:00,92.2,73.7,30.03,SSW,203,2.0,8.0,55,0.00,,BKN060,0.00,VWS V14.01,2013-07-06 20:19:00,
2013-07-06 16:24:00,92.5,72.9,30.03,SSE,153,2.0,8.0,53,0.00,,BKN060,0.00,VWS V14.01,2013-07-06 20:24:00,
2013-07-06 16:30:00,92.7,73.6,30.03,WNW,287,4.0,8.0,54,0.00,,BKN060,0.00,VWS V14.01,2013-07-06 20:30:00,
2013-07-06 16:35:00,92.6,73.5,30.03,West,267,2.0,5.0,54,0.00,,BKN060,0.00,VWS V14.01,2013-07-06 20:35:00,
2013-07-06 16:40:00,92.6,74.1,30.03,SW,217,3.0,7.0,55,0.00,,BKN060,0.00,VWS V14.01,2013-07-06 20:40:00,
2013-07-06 16:45:00,92.1,73.6,30.02,WSW,243,4.0,8.0,55,0.00,,BKN060,0.00,VWS V14.01,2013-07-06 20:45:00,
2013-07-06 16:50:00,92.1,74.7,30.02,SW,229,2.0,8.0,57,0.00,,BKN060,0.00,VWS V14.01,2013-07-06 20:50:00,
2013-07-06 16:55:00,92.7,75.2,30.02,WNW,302,0.0,8.0,57,0.00,,BKN060,0.00,VWS V14.01,2013-07-06 20:55:00,
2013-07-06 17:01:00,93.1,72.9,30.02,SSE,153,0.0,1.0,52,0.00,,CLR,0.00,VWS V14.01,2013-07-06 21:01:00,
2013-07-06 17:06:00,92.7,74.7,30.02,SW,226,3.0,5.0,56,0.00,,CLR,0.00,VWS V14.01,2013-07-06 21:06:00,
2013-07-06 17:11:00,92.6,74.1,30.01,WNW,288,1.0,5.0,55,0.00,,CLR,0.00,VWS V14.01,2013-07-06 21:11:00,
2013-07-06 17:16:00,92.8,74.3,30.01,WSW,237,3.0,5.0,55,0.00,,CLR,0.00,VWS V14.01,2013-07-06 21:16:00,
2013-07-06 17:21:00,92.3,73.8,30.01,SW,215,5.0,6.0,55,0.00,,CLR,0.00,VWS V14.01,2013-07-06 21:21:00,
2013-07-06 17:26:00,91.7,74.3,30.01,South,176,2.0,6.0,57,0.00,,CLR,0.00,VWS V14.01,2013-07-06 21:26:00,
2013-07-06 17:32:00,91.8,73.9,30.01,SW,229,2.0,2.0,56,0.00,,CLR,0.00,VWS V14.01,2013-07-06 21:32:00,
2013-07-06 17:37:00,91.6,74.2,30.01,SSW,207,0.0,6.0,57,0.00,,CLR,0.00,VWS V14.01,2013-07-06 21:37:00,
2013-07-06 17:42:00,92.2,74.8,30.01,East,91,1.0,6.0,57,0.00,,CLR,0.00,VWS V14.01,2013-07-06 21:42:00,
2013-07-06 17:47:00,92.3,75.9,30.01,WSW,237,1.0,6.0,59,0.00,,CLR,0.00,VWS V14.01,2013-07-06 21:47:00,
2013-07-06 17:52:00,92.5,74.5,30.00,SW,222,1.0,6.0,56,0.00,,CLR,0.00,VWS V14.01,2013-07-06 21:52:00,
2013-07-06 17:57:00,92.8,74.3,30.00,East,83,2.0,6.0,55,0.00,,CLR,0.00,VWS V14.01,2013-07-06 21:57:00,
2013-07-06 18:02:00,92.7,74.7,30.00,East,94,1.0,3.0,56,0.00,,SCT060,0.00,VWS V14.01,2013-07-06 22:02:00,
2013-07-06 18:07:00,92.9,75.4,30.00,SE,132,0.0,3.0,57,0.00,,SCT060,0.00,VWS V14.01,2013-07-06 22:07:00,
2013-07-06 18:13:00,93.9,75.3,30.00,East,82,1.0,3.0,55,0.00,,SCT060,0.00,VWS V14.01,2013-07-06 22:13:00,
2013-07-06 18:18:00,93.3,74.7,30.00,WSW,245,2.0,5.0,55,0.00,,SCT060,0.00,VWS V14.01,2013-07-06 22:18:00,
2013-07-06 18:23:00,92.1,74.2,30.00,SW,227,1.0,6.0,56,0.00,,SCT060,0.00,VWS V14.01,2013-07-06 22:23:00,
2013-07-06 18:28:00,91.8,74.4,30.00,WSW,240,1.0,6.0,57,0.00,,SCT060,0.00,VWS V14.01,2013-07-06 22:28:00,
2013-07-06 18:33:00,91.7,73.8,30.00,SW,223,1.0,2.0,56,0.00,,SCT060,0.00,VWS V14.01,2013-07-06 22:33:00,
2013-07-06 18:38:00,91.6,74.2,30.00,SW,225,1.0,4.0,57,0.00,,SCT060,0.00,VWS V14.01,2013-07-06 22:38:00,
2013-07-06 18:43:00,91.8,73.9,30.00,SW,233,1.0,4.0,56,0.00,,SCT060,0.00,VWS V14.01,2013-07-06 22:43:00,
2013-07-06 18:48:00,91.4,74.6,29.99,West,261,0.0,6.0,58,0.00,,SCT060,0.00,VWS V14.01,2013-07-06 22:48:00,
2013-07-06 18:54:00,91.6,74.2,29.99,West,259,2.0,6.0,57,0.00,,SCT060,0.00,VWS V14.01,2013-07-06 22:54:00,
2013-07-06 18:59:00,91.5,74.1,29.99,SW,228,0.0,6.0,57,0.00,,SCT060,0.00,VWS V14.01,2013-07-06 22:59:00,
2013-07-06 19:04:00,91.4,74.6,29.99,SSW,212,1.0,4.0,58,0.00,,FEW050,0.00,VWS V14.01,2013-07-06 23:04:00,
2013-07-06 19:09:00,91.1,74.3,29.99,SSW,212,2.0,4.0,58,0.00,,FEW050,0.00,VWS V14.01,2013-07-06 23:09:00,
2013-07-06 19:14:00,91.1,73.8,29.99,SW,228,2.0,5.0,57,0.00,,FEW050,0.00,VWS V14.01,2013-07-06 23:14:00,
2013-07-06 19:20:00,91.4,73.5,29.99,SW,215,2.0,5.0,56,0.00,,FEW050,0.00,VWS V14.01,2013-07-06 23:20:00,
2013-07-06 19:25:00,91.2,74.4,29.99,SSW,196,3.0,5.0,58,0.00,,FEW050,0.00,VWS V14.01,2013-07-06 23:25:00,
2013-07-06 19:30:00,90.9,73.0,29.99,SW,215,2.0,5.0,56,0.00,,FEW050,0.00,VWS V14.01,2013-07-06 23:30:00,
2013-07-06 19:35:00,90.6,73.8,29.99,WSW,239,1.0,4.0,58,0.00,,FEW050,0.00,VWS V14.01,2013-07-06 23:35:00,
2013-07-06 19:40:00,89.9,72.6,29.99,SW,224,4.0,8.0,57,0.00,,FEW050,0.00,VWS V14.01,2013-07-06 23:40:00,
2013-07-06 19:45:00,89.1,72.9,29.99,SW,221,2.0,8.0,59,0.00,,FEW050,0.00,VWS V14.01,2013-07-06 23:45:00,
2013-07-06 19:50:00,88.5,72.8,30.00,SW,227,4.0,8.0,60,0.00,,FEW050,0.00,VWS V14.01,2013-07-06 23:50:00,
2013-07-06 19:55:00,88.3,73.2,29.99,SSW,193,2.0,8.0,61,0.00,,FEW050,0.00,VWS V14.01,2013-07-06 23:55:00,
2013-07-06 20:00:00,88.1,73.4,29.99,SW,219,4.0,4.0,62,0.00,,CLR,0.00,VWS V14.01,2013-07-07 00:00:00,
2013-07-06 20:05:00,87.7,72.6,29.99,WSW,249,2.0,5.0,61,0.00,,CLR,0.00,VWS V14.01,2013-07-07 00:05:00,
2013-07-06 20:10:00,87.4,72.8,29.99,SW,232,4.0,5.0,62,0.00,,CLR,0.00,VWS V14.01,2013-07-07 00:10:00,
2013-07-06 20:16:00,86.9,72.8,30.00,SW,232,2.0,5.0,63,0.00,,CLR,0.00,VWS V14.01,2013-07-07 00:16:00,
2013-07-06 20:21:00,86.7,72.6,30.00,SW,221,2.0,7.0,63,0.00,,CLR,0.00,VWS V14.01,2013-07-07 00:21:00,
2013-07-06 20:26:00,86.6,72.0,30.00,SW,228,4.0,7.0,62,0.00,,CLR,0.00,VWS V14.01,2013-07-07 00:26:00,
2013-07-06 20:31:00,86.4,72.3,30.00,SSW,210,2.0,3.0,63,0.00,,CLR,0.00,VWS V14.01,2013-07-07 00:31:00,
2013-07-06 20:36:00,86.1,72.0,30.00,SW,229,1.0,3.0,63,0.00,,CLR,0.00,VWS V14.01,2013-07-07 00:36:00,
2013-07-06 20:42:00,86.1,71.6,30.00,SW,231,1.0,5.0,62,0.00,,CLR,0.00,VWS V14.01,2013-07-07 00:42:00,
2013-07-06 20:47:00,85.7,72.1,30.00,SW,214,0.0,5.0,64,0.00,,CLR,0.00,VWS V14.01,2013-07-07 00:47:00,
2013-07-06 20:52:00,85.3,72.2,30.00,SW,214,0.0,5.0,65,0.00,,CLR,0.00,VWS V14.01,2013-07-07 00:52:00,
2013-07-06 20:57:00,85.0,71.5,30.00,SW,215,0.0,5.0,64,0.00,,CLR,0.00,VWS V14.01,2013-07-07 00:57:00,
2013-07-06 21:03:00,84.9,72.3,30.00,ESE,122,0.0,0.0,66,0.00,,CLR,0.00,VWS V14.01,2013-07-07 01:03:00,
2013-07-06 21:08:00,84.4,72.7,30.00,ESE,115,0.0,0.0,68,0.00,,CLR,0.00,VWS V14.01,2013-07-07 01:08:00,
2013-07-06 21:13:00,83.8,73.0,30.00,ESE,102,0.0,0.0,70,0.00,,CLR,0.00,VWS V14.01,2013-07-07 01:13:00,
2013-07-06 21:18:00,83.3,72.9,30.00,SW,233,0.0,0.0,71,0.00,,CLR,0.00,VWS V14.01,2013-07-07 01:18:00,
2013-07-06 21:23:00,82.8,72.9,30.00,East,79,0.0,0.0,72,0.00,,CLR,0.00,VWS V14.01,2013-07-07 01:23:00,
2013-07-06 21:28:00,82.5,73.0,30.00,East,79,0.0,0.0,73,0.00,,CLR,0.00,VWS V14.01,2013-07-07 01:28:00,
2013-07-06 21:33:00,82.1,72.6,30.01,SW,231,0.0,0.0,73,0.00,,CLR,0.00,VWS V14.01,2013-07-07 01:33:00,
2013-07-06 21:38:00,81.8,72.7,30.01,SW,231,0.0,0.0,74,0.00,,CLR,0.00,VWS V14.01,2013-07-07 01:38:00,
2013-07-06 21:44:00,81.5,72.8,30.01,SSW,195,0.0,0.0,75,0.00,,CLR,0.00,VWS V14.01,2013-07-07 01:44:00,
2013-07-06 21:49:00,81.2,72.5,30.02,SSW,195,0.0,0.0,75,0.00,,CLR,0.00,VWS V14.01,2013-07-07 01:49:00,
2013-07-06 21:54:00,81.0,73.5,30.02,NE,49,1.0,2.0,78,0.00,,CLR,0.00,VWS V14.01,2013-07-07 01:54:00,
2013-07-06 21:59:00,80.9,74.2,30.02,NE,43,2.0,4.0,80,0.00,,CLR,0.00,VWS V14.01,2013-07-07 01:59:00,
2013-07-06 22:04:00,80.7,74.3,30.02,NE,48,0.0,3.0,81,0.00,,CLR,0.00,VWS V14.01,2013-07-07 02:04:00,
2013-07-06 22:10:00,80.5,74.1,30.02,NE,49,1.0,4.0,81,0.00,,CLR,0.00,VWS V14.01,2013-07-07 02:10:00,
2013-07-06 22:15:00,80.2,74.2,30.02,East,82,1.0,4.0,82,0.00,,CLR,0.00,VWS V14.01,2013-07-07 02:15:00,
2013-07-06 22:20:00,79.9,74.3,30.02,NE,41,2.0,4.0,83,0.00,,CLR,0.00,VWS V14.01,2013-07-07 02:20:00,
2013-07-06 22:25:00,79.7,74.1,30.02,NNE,26,1.0,4.0,83,0.00,,CLR,0.00,VWS V14.01,2013-07-07 02:25:00,
2013-07-06 22:30:00,79.5,74.2,30.02,East,87,0.0,0.0,84,0.00,,CLR,0.00,VWS V14.01,2013-07-07 02:30:00,
2013-07-06 22:35:00,79.3,74.4,30.03,East,92,0.0,1.0,85,0.00,,CLR,0.00,VWS V14.01,2013-07-07 02:35:00,
2013-07-06 22:41:00,79.1,74.2,30.03,NE,49,1.0,2.0,85,0.00,,CLR,0.00,VWS V14.01,2013-07-07 02:41:00,
2013-07-06 22:46:00,79.0,74.1,30.03,NE,37,1.0,2.0,85,0.00,,CLR,0.00,VWS V14.01,2013-07-07 02:46:00,
2013-07-06 22:51:00,78.8,74.3,30.03,NE,41,0.0,2.0,86,0.00,,CLR,0.00,VWS V14.01,2013-07-07 02:51:00,
2013-07-06 22:56:00,78.7,74.2,30.03,East,85,1.0,2.0,86,0.00,,CLR,0.00,VWS V14.01,2013-07-07 02:56:00,
2013-07-06 23:02:00,78.6,74.1,30.03,East,85,1.0,2.0,86,0.00,,CLR,0.00,VWS V14.01,2013-07-07 03:02:00,
2013-07-06 23:07:00,78.5,74.0,30.03,NE,44,2.0,3.0,86,0.00,,CLR,0.00,VWS V14.01,2013-07-07 03:07:00,
2013-07-06 23:12:00,78.4,74.2,30.03,NE,54,0.0,3.0,87,0.00,,CLR,0.00,VWS V14.01,2013-07-07 03:12:00,
2013-07-06 23:17:00,78.3,74.1,30.03,NE,53,0.0,3.0,87,0.00,,CLR,0.00,VWS V14.01,2013-07-07 03:17:00,
2013-07-06 23:22:00,78.1,73.9,30.02,NNE,27,0.0,3.0,87,0.00,,CLR,0.00,VWS V14.01,2013-07-07 03:22:00,
2013-07-06 23:27:00,77.9,74.1,30.03,NNE,32,0.0,3.0,88,0.00,,CLR,0.00,VWS V14.01,2013-07-07 03:27:00,
2013-07-06 23:33:00,77.8,73.6,30.03,East,84,0.0,0.0,87,0.00,,CLR,0.00,VWS V14.01,2013-07-07 03:33:00,
2013-07-06 23:39:00,77.6,72.7,30.03,SW,232,0.0,0.0,85,0.00,,CLR,0.00,VWS V14.01,2013-07-07 03:39:00,
2013-07-06 23:44:00,77.5,72.3,30.03,ESE,117,0.0,0.0,84,0.00,,CLR,0.00,VWS V14.01,2013-07-07 03:44:00,
2013-07-06 23:50:00,77.6,73.4,30.03,East,82,1.0,3.0,87,0.00,,CLR,0.00,VWS V14.01,2013-07-07 03:50:00,
2013-07-06 23:55:00,77.5,73.3,30.03,ESE,102,0.0,3.0,87,0.00,,CLR,0.00,VWS V14.01,2013-07-07 03:55:00,